AirNav   Everest Fuels
 
 599 users online  

8KS0 Morgan Farms Airport
Ulysses, Kansas, USA

GOING TO ULYSSES?


FAA INFORMATION EFFECTIVE 08 SEPTEMBER 2022

Location

FAA Identifier: 8KS0
Lat/Long: 37-48-47.6500N 101-27-53.6000W
37-48.794167N 101-27.893333W
37.8132361,-101.4648889
(estimated)
Elevation: 3217 ft. / 981 m (estimated)
Variation: 09E (1985)
From city: 13 miles NW of ULYSSES, KS
Time zone: UTC -5 (UTC -6 during Standard Time)
Zip code: 67860

Airport Operations

Airport use: Private use. Permission required prior to landing
Activation date: 02/1978
Control tower: no
ARTCC: KANSAS CITY CENTER
FSS: WICHITA FLIGHT SERVICE STATION
Attendance: UNATNDD
Wind indicator: yes
Segmented circle: no

Airport Communications

WX AWOS-3PT at ULS (13 nm S): 118.95 (620-424-3747)
WX AWOS-3PT at 36K (14 nm NE): 118.225 (620-355-4004)
WX AWOS-3 at 3K3 (17 nm NW): 119.975 (620-384-5869)
WX AWOS-2 at JHN (19 nm SW): 124.175 (620-492-2100)

Nearby radio navigation aids

VOR radial/distance  VOR name  Freq  Var
GCKr249/35.6GARDEN CITY VORTAC113.3011E

 
NDB name  Hdg/Dist  Freq  Var  ID
ULYSSES334/13.839506EULS ..- .-.. ...

Airport Services

Runway Information

Runway 8/26

Dimensions: 2800 x 70 ft. / 853 x 21 m
Surface: turf
RUNWAY 8  RUNWAY 26
Latitude: 37-48.804333N37-48.784333N
Longitude: 101-28.183667W101-27.602833W
Elevation: 3217.0 ft.3211.0 ft.
Traffic pattern: leftleft
Obstructions: tree, 500 ft. from runway
100' ANT TOWER SW OF APCH END RWY 08.
none

Airport Ownership and Management from official FAA records

Ownership: Privately-owned
Owner: GARY L & ETNAH MORGAN
RT 3 BOX 77
ULYSSES, KS 67880
Phone 316-355-6528

Additional Remarks

FOR CD CTC KANSAS CITY ARTCC AT 913-254-8508.

Instrument Procedures

There are no published instrument procedures at 8KS0.

Some nearby airports with instrument procedures:

KULS - Ulysses Airport (13 nm S)
3K3 - Syracuse-Hamilton County Municipal Airport (17 nm NW)
KJHN - Stanton County Municipal Airport (19 nm SW)
KGCK - Garden City Regional Airport (36 nm E)
3K7 - Mark Hoard Memorial Airport (39 nm N)
 
Loc | Ops | Rwys | IFR | FBO | Links
Com | Nav | Svcs | Stats | Notes

AirBoss

 
Area around 8KS0 (Morgan Farms Airport)
 
Road maps at: MapQuest Bing Google
 
Aerial photo
No photo
 
Sectional chart

 
Airport distance calculator
Flying to Morgan Farms Airport? Find the distance to fly.

From to 8KS0

Sunrise and sunset
Times for 03-Oct-2022
 Local
(UTC-5)
 Zulu
(UTC)
Morning civil twilight07:1812:18
Sunrise07:4412:44
Sunset19:2600:26
Evening civil twilight19:5200:52

Current date and time
Zulu (UTC)  03-Oct-2022 05:11:16
Local (UTC-5)  03-Oct-2022 00:11:16
 
METAR
KULS 
13nm S 
030450Z AUTO 15011KT 10SM CLR 17/M01 A3018 RMK AO2
K3K3 
18nm NW 
030455Z AUTO 15009KT 10SM CLR 16/M01 A3020 RMK AO2
KJHN 
19nm SW 
030455Z AUTO 16012KT 10SM CLR 18/M02 A3019 RMK AO2 T01771020
TAF
KGCK 
36nm E 
022035Z 0221/0318 18012G20KT P6SM SKC FM030500 16010KT P6SM SKC
NOTAMs
Click for the latest NOTAMs
NOTAMs are issued by the DoD/FAA and will open in a separate window not controlled by AirNav.

 

 
 

Would you like to see your business listed on this page?

 If your business provides an interesting product or service to pilots, flight crews, aircraft, or users of the Morgan Farms Airport, you should consider listing it here.  To start the listing process, click on the button below
 
Add a business
 

Other Pages about Morgan Farms Airport

Update a link
 
Copyright © AirNav, LLC. All rights reserved. Privacy Policy  Contact